createdAt,value
2017-08-21T00:01:26.271Z,101767.56
2017-08-21T00:06:30.858Z,101769.33
2017-08-21T00:11:35.546Z,101771.53
2017-08-21T00:16:38.668Z,101769.09
2017-08-21T00:21:41.462Z,101767.06
2017-08-21T00:26:46.626Z,101761.86
2017-08-21T00:31:50.322Z,101761.67
2017-08-21T00:36:53.346Z,101760.05
2017-08-21T00:42:01.647Z,101766.02
2017-08-21T00:47:06.079Z,101762.55
2017-08-21T00:52:09.104Z,101768.20
2017-08-21T00:57:11.652Z,101766.88
2017-08-21T01:02:14.098Z,101768.75
2017-08-21T01:07:18.046Z,101770.89
2017-08-21T01:12:20.372Z,101763.11
2017-08-21T01:17:22.935Z,101752.23
2017-08-21T01:22:25.401Z,101767.23
2017-08-21T01:27:27.950Z,101761.21
2017-08-21T01:32:31.521Z,101765.09
2017-08-21T01:37:33.997Z,101762.03
2017-08-21T01:42:36.494Z,101754.70
2017-08-21T01:47:38.581Z,101757.31
2017-08-21T01:52:41.101Z,101756.81
2017-08-21T01:58:15.529Z,101758.44
2017-08-21T02:03:17.641Z,101754.48
2017-08-21T02:08:20.159Z,101744.22
2017-08-21T02:13:22.739Z,101750.38
2017-08-21T02:18:25.213Z,101752.14
2017-08-21T02:23:27.844Z,101745.16
2017-08-21T02:28:30.511Z,101751.97
2017-08-21T02:33:32.988Z,101754.95
2017-08-21T02:38:45.590Z,101758.47
2017-08-21T02:43:48.218Z,101755.46
2017-08-21T02:48:50.455Z,101757.27
2017-08-21T02:53:53.099Z,101756.06
2017-08-21T02:58:55.640Z,101761.34
2017-08-21T03:03:58.117Z,101768.09
2017-08-21T03:09:00.466Z,101763.66
2017-08-21T03:14:03.066Z,101762.80
2017-08-21T03:19:09.121Z,101768.28
2017-08-21T03:24:13.478Z,101762.14
2017-08-21T03:29:15.899Z,101759.45
2017-08-21T03:34:18.330Z,101762.03
2017-08-21T03:39:23.513Z,101755.02
2017-08-21T03:44:27.827Z,101758.00
2017-08-21T03:49:34.800Z,101760.34
2017-08-21T03:54:40.160Z,101758.75
2017-08-21T03:59:44.671Z,101753.91
2017-08-21T04:04:47.769Z,101763.31
2017-08-21T04:09:52.337Z,101759.19
2017-08-21T04:14:58.781Z,101756.88
2017-08-21T04:20:04.119Z,101758.20
2017-08-21T04:25:10.825Z,101761.64
2017-08-21T04:30:13.299Z,101765.02
2017-08-21T04:35:15.798Z,101761.72
2017-08-21T04:40:22.645Z,101768.23
2017-08-21T04:45:25.086Z,101769.77
2017-08-21T04:50:27.648Z,101774.92
2017-08-21T04:55:30.081Z,101783.41
2017-08-21T05:00:32.414Z,101779.16
2017-08-21T05:05:34.823Z,101774.42
2017-08-21T05:10:52.084Z,101776.73
2017-08-21T05:15:54.410Z,101779.02
2017-08-21T05:20:56.775Z,101777.95
2017-08-21T05:25:59.185Z,101766.59
2017-08-21T05:31:01.516Z,101772.64
2017-08-21T05:36:06.078Z,101777.66
2017-08-21T05:41:14.237Z,101778.93
2017-08-21T05:46:18.014Z,101784.97
2017-08-21T05:51:21.482Z,101784.12
2017-08-21T05:56:28.070Z,101782.92
2017-08-21T06:01:32.751Z,101795.25
2017-08-21T06:06:37.737Z,101787.73
2017-08-21T06:11:42.122Z,101799.78
2017-08-21T06:16:46.301Z,101799.05
2017-08-21T06:21:50.198Z,101802.59
2017-08-21T06:26:53.733Z,101805.44
2017-08-21T06:31:56.170Z,101810.64
2017-08-21T06:36:58.864Z,101820.59
2017-08-21T06:42:01.589Z,101826.52
2017-08-21T06:47:04.162Z,101829.17
2017-08-21T06:52:06.823Z,101834.44
2017-08-21T06:57:08.941Z,101831.45
2017-08-21T07:02:11.260Z,101836.86
2017-08-21T07:07:13.693Z,101836.16
2017-08-21T07:12:15.998Z,101842.47
2017-08-21T07:17:18.614Z,101841.61
2017-08-21T07:22:21.281Z,101840.55
2017-08-21T07:27:23.944Z,101833.32
2017-08-21T07:32:27.082Z,101834.19
2017-08-21T07:37:29.686Z,101836.06
2017-08-21T07:42:32.071Z,101839.67
2017-08-21T07:47:34.639Z,101840.70
2017-08-21T07:52:37.128Z,101841.33
2017-08-21T07:57:39.474Z,101837.08
2017-08-21T08:02:42.073Z,101838.70
2017-08-21T08:07:44.376Z,101832.82
2017-08-21T08:12:46.849Z,101843.58
2017-08-21T08:17:49.447Z,101844.06
2017-08-21T08:22:51.776Z,101847.06
2017-08-21T08:27:54.173Z,101845.70
2017-08-21T08:32:56.685Z,101848.82
2017-08-21T08:37:59.496Z,101849.67
2017-08-21T08:43:02.308Z,101848.38
2017-08-21T08:48:05.009Z,101850.77
2017-08-21T08:53:10.798Z,101858.81
2017-08-21T08:58:13.829Z,101849.57
2017-08-21T09:03:16.461Z,101852.70
2017-08-21T09:08:18.808Z,101841.60
2017-08-21T09:13:21.316Z,101841.92
2017-08-21T09:18:23.992Z,101843.07
2017-08-21T09:23:26.785Z,101854.41
2017-08-21T09:28:30.113Z,101843.66
2017-08-21T09:33:32.822Z,101852.87
2017-08-21T09:38:35.332Z,101850.52
2017-08-21T09:43:37.678Z,101858.83
2017-08-21T09:48:40.334Z,101849.73
2017-08-21T09:53:42.716Z,101837.48
2017-08-21T09:58:45.344Z,101845.84
2017-08-21T10:03:51.387Z,101847.16
2017-08-21T10:08:55.990Z,101835.76
2017-08-21T10:14:00.175Z,101840.30
2017-08-21T10:24:13.212Z,101848.73
2017-08-21T10:29:16.808Z,101838.41
2017-08-21T10:34:20.502Z,101841.48
2017-08-21T10:39:24.340Z,101827.13
2017-08-21T10:44:28.895Z,101831.16
2017-08-21T10:49:32.402Z,101830.94
2017-08-21T10:54:36.120Z,101824.81
2017-08-21T10:59:39.251Z,101818.41
2017-08-21T11:04:42.198Z,101827.13
2017-08-21T11:09:45.113Z,101828.52
2017-08-21T11:14:47.971Z,101828.75
2017-08-21T11:19:50.193Z,101827.73
2017-08-21T11:24:52.570Z,101819.27
2017-08-21T11:29:55.331Z,101811.72
2017-08-21T11:34:58.001Z,101809.03
2017-08-21T11:40:00.426Z,101809.92
2017-08-21T11:45:03.088Z,101802.34
2017-08-21T11:50:05.751Z,101799.16
2017-08-21T11:55:08.182Z,101785.06
2017-08-21T12:00:10.990Z,101790.75
2017-08-21T12:05:13.695Z,101778.63
2017-08-21T12:10:16.135Z,101777.45
2017-08-21T12:15:18.811Z,101776.19
2017-08-21T12:20:21.000Z,101767.39
2017-08-21T12:25:23.233Z,101771.89
2017-08-21T12:30:37.120Z,101767.34
2017-08-21T12:35:54.519Z,101766.14
2017-08-21T12:46:17.755Z,101760.84
2017-08-21T12:51:20.231Z,101761.36
2017-08-21T12:56:22.823Z,101758.89
2017-08-21T13:01:26.106Z,101758.79
2017-08-21T13:06:28.760Z,101749.43
2017-08-21T13:11:31.212Z,101753.44
2017-08-21T13:16:33.504Z,101752.32
2017-08-21T13:21:35.775Z,101752.97
2017-08-21T13:26:38.117Z,101759.38
2017-08-21T13:31:40.556Z,101758.63
2017-08-21T13:36:57.782Z,101762.56
2017-08-21T13:42:00.064Z,101753.84
2017-08-21T13:47:02.510Z,101751.98
2017-08-21T13:52:04.715Z,101751.98
2017-08-21T13:57:06.879Z,101745.40
2017-08-21T14:02:09.144Z,101731.57
2017-08-21T14:07:11.451Z,101737.05
2017-08-21T14:12:13.661Z,101740.77
2017-08-21T14:17:16.040Z,101734.41
2017-08-21T14:22:18.367Z,101723.74
2017-08-21T14:27:20.678Z,101727.70
2017-08-21T14:32:22.891Z,101723.94
2017-08-21T14:37:25.207Z,101717.53
2017-08-21T14:42:28.348Z,101720.34
2017-08-21T14:47:31.001Z,101729.17
2017-08-21T14:52:33.599Z,101726.56
2017-08-21T14:57:35.928Z,101734.27
2017-08-21T15:02:38.122Z,101739.61
2017-08-21T15:07:41.007Z,101738.47
2017-08-21T15:12:43.384Z,101731.47
2017-08-21T15:17:45.878Z,101734.67
2017-08-21T15:22:48.101Z,101735.40
2017-08-21T15:27:50.464Z,101726.33
2017-08-21T15:38:11.938Z,101721.98
2017-08-21T15:48:42.244Z,101711.11
2017-08-21T15:53:59.519Z,101717.52
2017-08-21T15:59:02.549Z,101712.54
2017-08-21T16:04:05.444Z,101708.70
2017-08-21T16:09:07.791Z,101714.81
2017-08-21T16:14:10.287Z,101717.62
2017-08-21T16:19:13.295Z,101705.56
2017-08-21T16:24:26.653Z,101710.72
2017-08-21T16:29:29.357Z,101709.09
2017-08-21T16:34:33.215Z,101714.67
2017-08-21T16:44:51.189Z,101719.56
2017-08-21T16:49:53.496Z,101719.74
2017-08-21T16:54:56.076Z,101720.73
2017-08-21T16:59:58.643Z,101723.59
2017-08-21T17:05:01.349Z,101716.57
2017-08-21T17:10:09.788Z,101710.03
2017-08-21T17:15:12.175Z,101712.67
2017-08-21T17:20:14.747Z,101711.63
2017-08-21T17:25:17.063Z,101713.56
2017-08-21T17:30:19.419Z,101711.00
2017-08-21T17:35:33.948Z,101718.66
2017-08-21T17:40:48.628Z,101718.85
2017-08-21T17:45:52.246Z,101726.44
2017-08-21T17:50:54.724Z,101725.55
2017-08-21T17:55:57.024Z,101728.67
2017-08-21T18:00:59.391Z,101722.01
2017-08-21T18:06:01.884Z,101725.16
2017-08-21T18:11:04.241Z,101728.59
2017-08-21T18:16:08.707Z,101736.16
2017-08-21T18:21:11.155Z,101724.99
2017-08-21T18:26:13.592Z,101731.67
2017-08-21T18:31:16.384Z,101731.20
2017-08-21T18:36:18.860Z,101739.12
2017-08-21T18:41:21.203Z,101742.37
2017-08-21T18:46:23.815Z,101745.38
2017-08-21T18:51:28.741Z,101760.67
2017-08-21T18:56:35.921Z,101756.19
2017-08-21T19:01:48.729Z,101755.37
2017-08-21T19:06:57.320Z,101757.56
2017-08-21T19:12:04.655Z,101756.58
2017-08-21T19:17:07.917Z,101766.33
2017-08-21T19:22:14.526Z,101776.69
2017-08-21T19:27:17.060Z,101769.97
2017-08-21T19:32:22.672Z,101788.38
2017-08-21T19:37:25.388Z,101772.42
2017-08-21T19:42:29.129Z,101781.73
2017-08-21T19:47:31.579Z,101773.08
2017-08-21T19:52:33.905Z,101774.78
2017-08-21T19:57:36.309Z,101779.98
2017-08-21T20:02:38.580Z,101784.39
2017-08-21T20:07:40.952Z,101780.22
2017-08-21T20:12:43.459Z,101775.72
2017-08-21T20:17:49.096Z,101782.26
2017-08-21T20:22:56.419Z,101795.97
2017-08-21T20:28:01.645Z,101791.39
2017-08-21T20:33:04.605Z,101807.09
2017-08-21T20:38:07.244Z,101798.58
2017-08-21T20:43:14.740Z,101795.78
2017-08-21T20:48:17.292Z,101792.89
2017-08-21T20:53:19.737Z,101796.14
2017-08-21T20:58:21.935Z,101803.45
2017-08-21T21:03:27.384Z,101797.95
2017-08-21T21:08:29.896Z,101807.41
2017-08-21T21:13:32.403Z,101812.98
2017-08-21T21:18:34.802Z,101809.17
2017-08-21T21:23:37.186Z,101801.92
2017-08-21T21:28:39.537Z,101808.84
2017-08-21T21:33:41.926Z,101807.64
2017-08-21T21:38:44.375Z,101809.79
2017-08-21T21:43:46.832Z,101805.51
2017-08-21T21:48:49.306Z,101809.18
2017-08-21T21:53:51.720Z,101805.08
2017-08-21T21:58:54.070Z,101801.11
2017-08-21T22:03:56.449Z,101808.23
2017-08-21T22:08:59.005Z,101809.40
2017-08-21T22:14:01.547Z,101810.73
2017-08-21T22:19:06.207Z,101809.50
2017-08-21T22:24:08.552Z,101799.63
2017-08-21T22:29:11.001Z,101801.48
2017-08-21T22:34:13.362Z,101799.65
2017-08-21T22:39:15.796Z,101800.83
2017-08-21T22:44:18.264Z,101801.53
2017-08-21T22:49:20.534Z,101806.51
2017-08-21T22:54:24.327Z,101803.84
2017-08-21T22:59:31.666Z,101804.80
2017-08-21T23:04:37.902Z,101800.76
2017-08-21T23:09:44.281Z,101801.17
2017-08-21T23:14:50.643Z,101794.72
2017-08-21T23:19:57.663Z,101802.75
2017-08-21T23:25:02.103Z,101790.96
2017-08-21T23:30:07.555Z,101796.66
2017-08-21T23:35:15.007Z,101789.52
2017-08-21T23:40:19.417Z,101783.49
2017-08-21T23:45:25.966Z,101786.05
2017-08-21T23:50:31.985Z,101780.13
2017-08-21T23:55:34.923Z,101779.56
